createdAt,value
2022-08-25T00:01:50.945Z,24.22
2022-08-25T00:04:18.641Z,24.18
2022-08-25T00:06:45.679Z,24.16
2022-08-25T00:09:15.513Z,24.16
2022-08-25T00:11:43.065Z,24.13
2022-08-25T00:14:13.274Z,24.14
2022-08-25T00:16:57.272Z,24.13
2022-08-25T00:19:27.384Z,24.12
2022-08-25T00:21:56.208Z,24.11
2022-08-25T00:24:23.400Z,24.05
2022-08-25T00:26:54.879Z,24.05
2022-08-25T00:29:23.084Z,24.02
2022-08-25T00:31:49.599Z,24.00
2022-08-25T00:34:20.235Z,23.99
2022-08-25T00:36:47.191Z,23.90
2022-08-25T00:39:13.855Z,23.81
2022-08-25T00:41:43.132Z,23.80
2022-08-25T00:44:12.430Z,23.75
2022-08-25T00:46:44.983Z,23.77
2022-08-25T00:49:25.427Z,23.73
2022-08-25T00:52:01.207Z,23.73
2022-08-25T00:54:53.181Z,23.71
2022-08-25T00:57:34.174Z,23.67
2022-08-25T01:00:07.991Z,23.57
2022-08-25T01:02:34.414Z,23.57
2022-08-25T01:05:00.980Z,23.53
2022-08-25T01:07:27.418Z,23.41
2022-08-25T01:09:54.123Z,23.34
2022-08-25T01:12:21.434Z,23.41
2022-08-25T01:14:50.023Z,23.34
2022-08-25T01:17:16.862Z,23.30
2022-08-25T01:19:43.258Z,23.29
2022-08-25T01:22:12.271Z,23.23
2022-08-25T01:24:42.514Z,23.25
2022-08-25T01:27:10.348Z,23.24
2022-08-25T01:29:37.724Z,23.22
2022-08-25T01:32:07.618Z,23.14
2022-08-25T01:34:37.884Z,23.15
2022-08-25T01:37:05.088Z,23.08
2022-08-25T01:39:38.940Z,23.06
2022-08-25T01:42:29.021Z,23.12
2022-08-25T01:44:55.748Z,23.03
2022-08-25T01:47:22.493Z,23.02
2022-08-25T01:49:49.444Z,23.01
2022-08-25T01:52:31.925Z,23.00
2022-08-25T01:54:58.305Z,22.95
2022-08-25T01:57:24.753Z,22.83
2022-08-25T01:59:51.413Z,22.85
2022-08-25T02:02:18.455Z,22.79
2022-08-25T02:04:45.171Z,22.84
2022-08-25T02:07:11.538Z,22.83
2022-08-25T02:09:38.611Z,22.81
2022-08-25T02:12:05.834Z,22.78
2022-08-25T02:14:32.375Z,22.74
2022-08-25T02:16:58.794Z,22.72
2022-08-25T02:19:25.909Z,22.72
2022-08-25T02:21:52.614Z,22.69
2022-08-25T02:24:19.486Z,22.66
2022-08-25T02:26:45.911Z,22.64
2022-08-25T02:29:13.002Z,22.57
2022-08-25T02:31:39.716Z,22.51
2022-08-25T02:34:07.710Z,22.55
2022-08-25T02:36:34.581Z,22.56
2022-08-25T02:39:01.369Z,22.46
2022-08-25T02:41:31.632Z,22.55
2022-08-25T02:43:58.799Z,22.55
2022-08-25T02:46:25.296Z,22.52
2022-08-25T02:48:53.063Z,22.50
2022-08-25T02:51:21.981Z,22.42
2022-08-25T02:53:49.212Z,22.41
2022-08-25T02:56:18.160Z,22.44
2022-08-25T02:58:45.951Z,22.46
2022-08-25T03:01:13.071Z,22.48
2022-08-25T03:03:40.713Z,22.44
2022-08-25T03:06:10.838Z,22.41
2022-08-25T03:08:37.613Z,22.44
2022-08-25T03:11:05.019Z,22.39
2022-08-25T03:13:32.249Z,22.42
2022-08-25T03:16:03.497Z,22.38
2022-08-25T03:18:31.425Z,22.36
2022-08-25T03:20:59.066Z,22.34
2022-08-25T03:23:26.149Z,22.40
2022-08-25T03:26:14.814Z,22.42
2022-08-25T03:28:41.665Z,22.40
2022-08-25T03:31:08.782Z,22.37
2022-08-25T03:33:36.443Z,22.35
2022-08-25T03:36:03.415Z,22.39
2022-08-25T03:38:29.939Z,22.38
2022-08-25T03:40:56.352Z,22.34
2022-08-25T03:43:23.241Z,22.30
2022-08-25T03:45:49.806Z,22.27
2022-08-25T03:48:17.684Z,22.24
2022-08-25T03:50:50.587Z,22.25
2022-08-25T03:53:19.483Z,22.21
2022-08-25T03:55:45.944Z,22.24
2022-08-25T03:58:12.444Z,22.19
2022-08-25T04:00:39.840Z,22.16
2022-08-25T04:03:06.621Z,22.10
2022-08-25T04:05:33.516Z,22.13
2022-08-25T04:08:01.637Z,22.13
2022-08-25T04:10:28.739Z,22.11
2022-08-25T04:12:55.980Z,22.03
2022-08-25T04:15:22.810Z,22.02
2022-08-25T04:17:51.810Z,21.98
2022-08-25T04:20:18.851Z,21.99
2022-08-25T04:22:45.365Z,21.97
2022-08-25T04:25:12.416Z,21.94
2022-08-25T04:27:38.876Z,21.97
2022-08-25T04:30:06.628Z,21.94
2022-08-25T04:32:33.358Z,21.93
2022-08-25T04:34:59.909Z,21.89
2022-08-25T04:37:26.443Z,21.86
2022-08-25T04:39:52.921Z,21.85
2022-08-25T04:42:19.532Z,21.82
2022-08-25T04:44:45.891Z,21.80
2022-08-25T04:47:12.297Z,21.78
2022-08-25T04:49:38.652Z,21.76
2022-08-25T04:52:05.108Z,21.78
2022-08-25T04:54:39.697Z,21.79
2022-08-25T04:57:06.767Z,21.77
2022-08-25T04:59:33.472Z,21.77
2022-08-25T05:02:03.111Z,21.77
2022-08-25T05:04:30.709Z,21.72
2022-08-25T05:06:57.451Z,21.75
2022-08-25T05:09:25.170Z,21.79
2022-08-25T05:11:52.109Z,21.78
2022-08-25T05:14:21.618Z,21.84
2022-08-25T05:16:52.264Z,21.84
2022-08-25T05:19:19.070Z,21.85
2022-08-25T05:21:45.605Z,21.87
2022-08-25T05:24:12.091Z,21.87
2022-08-25T05:26:38.666Z,21.89
2022-08-25T05:29:05.982Z,21.91
2022-08-25T05:31:33.157Z,21.94
2022-08-25T05:34:02.728Z,21.95
2022-08-25T05:36:29.738Z,22.00
2022-08-25T05:38:56.175Z,21.99
2022-08-25T05:41:29.852Z,22.04
2022-08-25T05:43:56.997Z,22.04
2022-08-25T05:46:24.518Z,22.11
2022-08-25T05:48:51.407Z,22.13
2022-08-25T05:51:18.676Z,22.15
2022-08-25T05:53:46.632Z,22.16
2022-08-25T05:56:14.107Z,22.17
2022-08-25T05:58:41.597Z,22.18
2022-08-25T06:01:27.037Z,22.20
2022-08-25T06:03:54.156Z,22.23
2022-08-25T06:06:24.357Z,22.27
2022-08-25T06:08:51.435Z,22.27
2022-08-25T06:11:17.819Z,22.29
2022-08-25T06:13:44.203Z,22.34
2022-08-25T06:16:10.973Z,22.34
2022-08-25T06:18:37.455Z,22.31
2022-08-25T06:21:14.801Z,22.31
2022-08-25T06:23:42.038Z,22.34
2022-08-25T06:26:21.061Z,22.35
2022-08-25T06:28:48.905Z,22.35
2022-08-25T06:31:15.387Z,22.40
2022-08-25T06:33:41.895Z,22.43
2022-08-25T06:36:08.681Z,22.47
2022-08-25T06:38:35.388Z,22.57
2022-08-25T06:41:04.274Z,22.62
2022-08-25T06:43:33.061Z,22.62
2022-08-25T06:46:12.797Z,22.69
2022-08-25T06:48:39.741Z,22.91
2022-08-25T06:51:14.284Z,23.02
2022-08-25T06:53:41.547Z,23.07
2022-08-25T06:56:08.365Z,23.07
2022-08-25T06:58:35.417Z,23.13
2022-08-25T07:01:20.537Z,23.22
2022-08-25T07:03:48.268Z,23.26
2022-08-25T07:06:18.875Z,23.32
2022-08-25T07:08:46.433Z,23.38
2022-08-25T07:11:16.128Z,23.48
2022-08-25T07:13:43.770Z,23.58
2022-08-25T07:16:11.437Z,23.68
2022-08-25T07:18:38.350Z,23.75
2022-08-25T07:21:04.840Z,23.83
2022-08-25T07:23:35.590Z,23.94
2022-08-25T07:29:08.063Z,24.16
2022-08-25T07:31:34.759Z,24.27
2022-08-25T07:34:19.994Z,24.30
2022-08-25T07:36:46.811Z,24.38
2022-08-25T07:39:13.180Z,24.52
2022-08-25T07:41:41.813Z,24.57
2022-08-25T07:44:10.441Z,24.59
2022-08-25T07:46:37.104Z,24.62
2022-08-25T07:49:04.063Z,24.65
2022-08-25T07:51:36.069Z,24.68
2022-08-25T07:54:02.823Z,24.80
2022-08-25T07:56:30.142Z,24.91
2022-08-25T07:58:56.561Z,25.02
2022-08-25T08:01:25.518Z,25.15
2022-08-25T08:03:52.528Z,25.27
2022-08-25T08:06:22.495Z,25.36
2022-08-25T08:08:54.655Z,25.39
2022-08-25T08:11:28.098Z,25.52
2022-08-25T08:13:57.148Z,25.61
2022-08-25T08:16:26.047Z,25.73
2022-08-25T08:18:52.900Z,25.83
2022-08-25T08:21:26.753Z,25.95
2022-08-25T08:23:58.853Z,26.04
2022-08-25T08:26:36.416Z,26.17
2022-08-25T08:29:13.302Z,26.29
2022-08-25T08:31:40.023Z,26.32
2022-08-25T08:34:15.701Z,26.40
2022-08-25T08:36:42.179Z,26.53
2022-08-25T08:39:11.645Z,26.63
2022-08-25T08:42:11.263Z,26.72
2022-08-25T08:44:44.621Z,26.80
2022-08-25T08:47:38.941Z,26.89
2022-08-25T08:50:24.024Z,26.99
2022-08-25T08:53:23.600Z,27.11
2022-08-25T08:55:55.619Z,27.16
2022-08-25T08:58:28.667Z,27.25
2022-08-25T09:00:58.318Z,27.35
2022-08-25T09:03:47.008Z,27.45
2022-08-25T09:06:31.838Z,27.50
2022-08-25T09:09:01.964Z,27.58
2022-08-25T09:11:40.893Z,27.67
2022-08-25T09:14:30.615Z,27.72
2022-08-25T09:17:11.763Z,27.86
2022-08-25T09:19:56.762Z,27.94
2022-08-25T09:23:06.050Z,27.97
2022-08-25T09:26:00.267Z,28.09
2022-08-25T09:28:32.381Z,28.20
2022-08-25T09:31:29.370Z,28.25
2022-08-25T09:33:57.773Z,28.34
2022-08-25T09:36:24.912Z,28.46
2022-08-25T09:38:51.658Z,28.53
2022-08-25T09:41:45.237Z,28.58
2022-08-25T09:44:38.647Z,28.59
2022-08-25T09:47:15.709Z,28.70
2022-08-25T09:50:00.115Z,28.81
2022-08-25T09:52:32.390Z,28.90
2022-08-25T09:55:14.649Z,28.93
2022-08-25T09:57:44.143Z,29.03
2022-08-25T10:00:40.110Z,29.10
2022-08-25T10:03:12.129Z,29.18
2022-08-25T10:05:57.454Z,29.26
2022-08-25T10:08:35.960Z,29.38
2022-08-25T10:11:08.649Z,29.41
2022-08-25T10:13:48.550Z,29.36
2022-08-25T10:16:35.673Z,29.45
2022-08-25T10:19:06.681Z,29.50
2022-08-25T10:21:35.802Z,29.61
2022-08-25T10:24:03.003Z,29.60
2022-08-25T10:26:34.937Z,29.68
2022-08-25T10:29:22.491Z,29.77
2022-08-25T10:32:04.111Z,29.84
2022-08-25T10:34:51.996Z,29.92
2022-08-25T10:37:32.935Z,30.05
2022-08-25T10:40:23.398Z,30.22
2022-08-25T10:43:12.410Z,30.40
2022-08-25T10:45:47.953Z,30.41
2022-08-25T10:48:23.553Z,30.40
2022-08-25T10:51:25.836Z,30.54
2022-08-25T10:54:17.865Z,30.57
2022-08-25T10:57:01.423Z,30.69
2022-08-25T10:59:52.449Z,30.68
2022-08-25T11:02:42.202Z,30.74
2022-08-25T11:05:24.635Z,30.92
2022-08-25T11:07:58.873Z,31.08
2022-08-25T11:10:40.264Z,31.14
2022-08-25T11:13:14.039Z,31.16
2022-08-25T11:16:15.441Z,31.26
2022-08-25T11:18:55.633Z,31.35
2022-08-25T11:21:34.895Z,31.26
2022-08-25T11:24:14.056Z,31.23
2022-08-25T11:26:47.320Z,31.17
2022-08-25T11:29:18.203Z,31.19
2022-08-25T11:31:53.655Z,31.32
2022-08-25T11:34:22.337Z,31.41
2022-08-25T11:36:57.500Z,31.36
2022-08-25T11:39:45.004Z,31.48
2022-08-25T11:42:42.917Z,31.53
2022-08-25T11:45:37.601Z,31.46
2022-08-25T11:48:13.743Z,31.60
2022-08-25T11:51:00.393Z,31.66
2022-08-25T11:53:37.678Z,31.71
2022-08-25T11:56:36.221Z,31.71
2022-08-25T11:59:05.284Z,31.60
2022-08-25T12:01:40.728Z,31.73
2022-08-25T12:04:15.164Z,31.95
2022-08-25T12:07:10.936Z,31.99
2022-08-25T12:09:55.646Z,31.74
2022-08-25T12:12:32.646Z,31.70
2022-08-25T12:15:39.269Z,31.78
2022-08-25T12:18:11.370Z,31.83
2022-08-25T12:20:53.395Z,31.81
2022-08-25T12:23:28.829Z,31.80
2022-08-25T12:26:00.951Z,31.65
2022-08-25T12:29:09.082Z,31.52
2022-08-25T12:31:47.583Z,31.44
2022-08-25T12:34:28.011Z,31.47
2022-08-25T12:36:58.028Z,31.42
2022-08-25T12:39:33.370Z,31.64
2022-08-25T12:42:21.964Z,31.78
2022-08-25T12:45:31.193Z,31.97
2022-08-25T12:48:28.080Z,32.09
2022-08-25T12:51:02.485Z,32.16
2022-08-25T12:53:39.018Z,32.24
2022-08-25T12:56:10.122Z,32.25
2022-08-25T12:59:20.364Z,32.23
2022-08-25T13:01:57.384Z,32.39
2022-08-25T13:04:43.059Z,32.44
2022-08-25T13:07:41.026Z,32.48
2022-08-25T13:10:29.044Z,32.51
2022-08-25T13:13:01.619Z,32.45
2022-08-25T13:15:47.036Z,32.40
2022-08-25T13:18:13.590Z,32.38
2022-08-25T13:20:40.628Z,32.33
2022-08-25T13:23:11.072Z,32.41
2022-08-25T13:25:46.967Z,32.38
2022-08-25T13:28:26.918Z,32.33
2022-08-25T13:31:07.734Z,32.48
2022-08-25T13:33:35.567Z,32.59
2022-08-25T13:36:21.615Z,32.55
2022-08-25T13:38:49.749Z,32.68
2022-08-25T13:41:29.187Z,32.77
2022-08-25T13:43:57.051Z,32.84
2022-08-25T13:46:28.337Z,32.92
2022-08-25T13:49:04.928Z,32.97
2022-08-25T13:51:31.913Z,32.99
2022-08-25T13:54:01.392Z,33.00
2022-08-25T13:56:39.944Z,32.89
2022-08-25T13:59:25.682Z,32.86
2022-08-25T14:01:54.537Z,33.06
2022-08-25T14:04:51.559Z,33.89
2022-08-25T14:07:22.316Z,35.35
2022-08-25T14:09:52.445Z,35.68
2022-08-25T14:12:31.478Z,35.38
2022-08-25T14:15:10.812Z,34.76
2022-08-25T14:17:40.952Z,34.45
2022-08-25T14:20:29.049Z,34.42
2022-08-25T14:22:59.276Z,34.30
2022-08-25T14:25:28.201Z,34.10
2022-08-25T14:28:06.801Z,33.96
2022-08-25T14:30:36.810Z,33.93
2022-08-25T14:33:04.208Z,33.84
2022-08-25T14:35:31.637Z,34.17
2022-08-25T14:37:58.973Z,34.44
2022-08-25T14:40:25.463Z,35.59
2022-08-25T14:42:51.967Z,37.25
2022-08-25T14:45:19.417Z,37.72
2022-08-25T14:47:50.000Z,36.40
2022-08-25T14:50:20.161Z,34.93
2022-08-25T14:52:48.208Z,33.97
2022-08-25T14:55:31.259Z,33.31
2022-08-25T14:57:58.674Z,32.77
2022-08-25T15:00:26.032Z,32.59
2022-08-25T15:02:53.002Z,32.42
2022-08-25T15:05:28.305Z,32.30
2022-08-25T15:08:14.228Z,32.10
2022-08-25T15:10:41.946Z,31.98
2022-08-25T15:13:10.139Z,31.86
2022-08-25T15:15:39.420Z,31.88
2022-08-25T15:18:19.620Z,31.83
2022-08-25T15:20:46.834Z,31.79
2022-08-25T15:23:16.453Z,31.72
2022-08-25T15:25:44.287Z,31.69
2022-08-25T15:28:10.664Z,31.70
2022-08-25T15:30:37.374Z,31.73
2022-08-25T15:33:03.915Z,31.75
2022-08-25T15:35:31.070Z,31.80
2022-08-25T15:37:57.630Z,31.70
2022-08-25T15:40:24.153Z,31.64
2022-08-25T15:42:51.133Z,31.53
2022-08-25T15:45:18.497Z,31.48
2022-08-25T15:47:45.398Z,31.47
2022-08-25T15:50:16.425Z,31.46
2022-08-25T15:52:47.633Z,31.37
2022-08-25T15:55:16.619Z,31.31
2022-08-25T15:57:43.325Z,31.28
2022-08-25T16:00:12.309Z,31.23
2022-08-25T16:02:40.412Z,31.22
2022-08-25T16:05:08.860Z,31.11
2022-08-25T16:07:35.247Z,31.07
2022-08-25T16:10:04.118Z,31.07
2022-08-25T16:12:34.596Z,30.99
2022-08-25T16:15:03.268Z,30.94
2022-08-25T16:17:29.649Z,30.97
2022-08-25T16:19:56.019Z,30.93
2022-08-25T16:22:22.398Z,30.90
2022-08-25T16:24:48.983Z,30.93
2022-08-25T16:27:15.789Z,30.97
2022-08-25T16:29:43.942Z,30.98
2022-08-25T16:32:13.585Z,30.98
2022-08-25T16:34:41.421Z,30.93
2022-08-25T16:37:08.731Z,30.93
2022-08-25T16:39:35.882Z,30.88
2022-08-25T16:42:02.259Z,30.85
2022-08-25T16:44:28.807Z,30.84
2022-08-25T16:46:55.355Z,30.91
2022-08-25T16:49:24.352Z,30.94
2022-08-25T16:51:56.962Z,30.92
2022-08-25T16:54:42.159Z,30.92
2022-08-25T16:57:08.818Z,30.94
2022-08-25T16:59:35.186Z,30.84
2022-08-25T17:02:01.865Z,30.80
2022-08-25T17:04:32.060Z,30.73
2022-08-25T17:06:58.837Z,30.72
2022-08-25T17:09:25.203Z,30.73
2022-08-25T17:11:54.369Z,30.72
2022-08-25T17:14:21.498Z,30.71
2022-08-25T17:16:48.593Z,30.65
2022-08-25T17:19:17.361Z,30.61
2022-08-25T17:21:46.235Z,30.47
2022-08-25T17:24:13.790Z,30.28
2022-08-25T17:26:46.099Z,30.23
2022-08-25T17:29:12.740Z,30.11
2022-08-25T17:31:40.006Z,30.01
2022-08-25T17:34:10.353Z,29.93
2022-08-25T17:36:37.238Z,29.88
2022-08-25T17:39:04.647Z,29.86
2022-08-25T17:41:32.448Z,29.84
2022-08-25T17:43:59.436Z,29.77
2022-08-25T17:46:26.270Z,29.76
2022-08-25T17:48:53.555Z,29.67
2022-08-25T17:51:21.218Z,29.59
2022-08-25T17:53:49.168Z,29.46
2022-08-25T17:56:20.971Z,29.32
2022-08-25T17:58:48.373Z,29.13
2022-08-25T18:01:17.833Z,29.01
2022-08-25T18:03:44.568Z,28.96
2022-08-25T18:06:14.979Z,28.87
2022-08-25T18:08:43.613Z,28.77
2022-08-25T18:11:10.389Z,28.68
2022-08-25T18:13:38.272Z,28.60
2022-08-25T18:16:05.800Z,28.69
2022-08-25T18:18:34.172Z,28.63
2022-08-25T18:21:02.585Z,28.59
2022-08-25T18:23:30.057Z,28.55
2022-08-25T18:26:01.011Z,28.50
2022-08-25T18:28:28.274Z,28.44
2022-08-25T18:30:54.799Z,28.36
2022-08-25T18:33:23.246Z,28.29
2022-08-25T18:35:49.791Z,28.27
2022-08-25T18:38:36.300Z,28.15
2022-08-25T18:41:06.842Z,28.04
2022-08-25T18:43:34.994Z,27.91
2022-08-25T18:46:04.686Z,27.83
2022-08-25T18:48:32.051Z,27.74
2022-08-25T18:51:00.886Z,27.74
2022-08-25T18:53:30.548Z,27.61
2022-08-25T18:56:16.067Z,27.52
2022-08-25T18:58:42.442Z,27.49
2022-08-25T19:01:13.587Z,27.41
2022-08-25T19:03:40.118Z,27.25
2022-08-25T19:06:06.978Z,27.22
2022-08-25T19:08:33.516Z,27.07
2022-08-25T19:10:59.906Z,27.05
2022-08-25T19:13:26.522Z,26.93
2022-08-25T19:15:52.952Z,26.84
2022-08-25T19:18:28.864Z,26.66
2022-08-25T19:20:55.948Z,26.57
2022-08-25T19:23:22.351Z,26.53
2022-08-25T19:25:48.819Z,26.52
2022-08-25T19:28:16.151Z,26.45
2022-08-25T19:30:49.969Z,26.30
2022-08-25T19:33:42.241Z,26.34
2022-08-25T19:36:08.771Z,26.19
2022-08-25T19:38:36.884Z,26.21
2022-08-25T19:41:10.727Z,26.08
2022-08-25T19:43:56.757Z,26.02
2022-08-25T19:46:33.320Z,25.90
2022-08-25T19:49:13.644Z,25.91
2022-08-25T19:51:44.577Z,25.80
2022-08-25T19:54:14.137Z,25.80
2022-08-25T19:56:43.512Z,25.71
2022-08-25T19:59:22.464Z,25.46
2022-08-25T20:01:50.080Z,25.40
2022-08-25T20:04:16.613Z,25.25
2022-08-25T20:06:43.284Z,25.21
2022-08-25T20:09:21.085Z,25.20
2022-08-25T20:12:02.146Z,25.10
2022-08-25T20:14:28.978Z,25.12
2022-08-25T20:16:55.357Z,25.10
2022-08-25T20:19:21.726Z,24.95
2022-08-25T20:21:48.108Z,24.92
2022-08-25T20:24:32.717Z,24.99
2022-08-25T20:27:00.160Z,24.88
2022-08-25T20:29:26.564Z,24.77
2022-08-25T20:31:53.016Z,24.67
2022-08-25T20:34:19.633Z,24.64
2022-08-25T20:36:49.862Z,24.53
2022-08-25T20:39:17.779Z,24.41
2022-08-25T20:41:45.286Z,24.48
2022-08-25T20:44:15.534Z,24.44
2022-08-25T20:46:41.896Z,24.40
2022-08-25T20:49:09.045Z,24.47
2022-08-25T20:51:35.566Z,24.39
2022-08-25T20:54:02.126Z,24.36
2022-08-25T20:56:30.450Z,24.23
2022-08-25T20:58:56.882Z,24.19
2022-08-25T21:01:47.597Z,24.20
2022-08-25T21:04:17.785Z,24.19
2022-08-25T21:06:46.165Z,24.02
2022-08-25T21:09:16.031Z,23.98
2022-08-25T21:11:43.152Z,23.96
2022-08-25T21:14:10.270Z,23.87
2022-08-25T21:16:38.301Z,23.77
2022-08-25T21:19:05.951Z,23.77
2022-08-25T21:21:37.727Z,23.75
2022-08-25T21:24:05.268Z,23.65
2022-08-25T21:26:35.528Z,23.67
2022-08-25T21:29:04.303Z,23.60
2022-08-25T21:31:32.535Z,23.68
2022-08-25T21:33:59.935Z,23.60
2022-08-25T21:36:29.286Z,23.60
2022-08-25T21:38:58.156Z,23.59
2022-08-25T21:41:29.184Z,23.34
2022-08-25T21:43:56.808Z,23.28
2022-08-25T21:46:26.289Z,23.36
2022-08-25T21:48:58.784Z,23.37
2022-08-25T21:51:32.339Z,23.22
2022-08-25T21:54:10.157Z,23.13
2022-08-25T21:56:38.530Z,23.11
2022-08-25T21:59:07.255Z,23.06
2022-08-25T22:01:34.462Z,23.06
2022-08-25T22:04:02.062Z,23.08
2022-08-25T22:06:29.285Z,23.11
2022-08-25T22:08:56.055Z,23.15
2022-08-25T22:11:22.949Z,23.10
2022-08-25T22:13:51.075Z,23.15
2022-08-25T22:16:21.954Z,23.12
2022-08-25T22:18:50.149Z,23.07
2022-08-25T22:21:22.455Z,23.15
2022-08-25T22:23:50.219Z,22.94
2022-08-25T22:26:17.273Z,22.88
2022-08-25T22:28:48.508Z,22.89
2022-08-25T22:31:20.659Z,22.83
2022-08-25T22:33:48.438Z,22.78
2022-08-25T22:36:19.706Z,22.74
2022-08-25T22:38:47.429Z,22.66
2022-08-25T22:41:19.163Z,22.57
2022-08-25T22:43:51.069Z,22.55
2022-08-25T22:46:19.220Z,22.57
2022-08-25T22:48:46.170Z,22.53
2022-08-25T22:51:15.594Z,22.42
2022-08-25T22:53:44.355Z,22.46
2022-08-25T22:56:13.424Z,22.39
2022-08-25T22:58:51.642Z,22.36
2022-08-25T23:03:46.043Z,22.50
2022-08-25T23:06:24.806Z,22.53
2022-08-25T23:08:53.572Z,22.41
2022-08-25T23:11:21.768Z,22.39
2022-08-25T23:13:48.881Z,22.47
2022-08-25T23:16:16.963Z,22.42
2022-08-25T23:18:44.884Z,22.36
2022-08-25T23:21:35.186Z,22.24
2022-08-25T23:24:08.730Z,22.31
2022-08-25T23:26:38.061Z,22.30
2022-08-25T23:29:17.538Z,22.29
2022-08-25T23:31:44.637Z,22.22
2022-08-25T23:34:11.295Z,22.15
2022-08-25T23:36:37.816Z,22.17
2022-08-25T23:39:05.431Z,22.18
2022-08-25T23:41:34.218Z,22.22
2022-08-25T23:44:05.224Z,22.28
2022-08-25T23:46:33.007Z,22.16
2022-08-25T23:48:59.833Z,22.13
2022-08-25T23:51:29.412Z,22.06
2022-08-25T23:53:57.075Z,21.99
2022-08-25T23:56:25.892Z,22.03
2022-08-25T23:58:52.303Z,22.07
